.
WxDataArchive / Data Records for 2013-07-08
2013-07-07 July 2013 2013-07-09

Data Records for Monday, 08 July 2013

Time	Temp	Chill	HIndex	Humid	Dewpt	 Wind 	HiWind	WindDir	Rain 	Barom 
-----	----	-----	------	-----	-----	------	------	-------	-----	----- 
00:00	71.6	71.6	71.6	94	69.8	0	0	---	0.00	30.027 
00:05	71.6	71.6	71.6	94	69.8	0	0	---	0.00	30.027 
00:10	71.6	71.6	71.6	94	69.8	0	1	135	0.00	30.027 
00:15	71.6	71.6	71.6	94	69.8	0	0	---	0.00	30.029 
00:20	71.5	71.5	71.5	94	69.7	0	0	---	0.00	30.029 
00:25	71.5	71.5	71.5	94	69.7	0	0	---	0.00	30.029 
00:30	71.5	71.5	71.5	94	69.7	0	0	---	0.00	30.032 
00:35	71.5	71.5	71.5	94	69.7	0	0	---	0.00	30.032 
00:40	71.5	71.5	71.5	94	69.7	0	0	---	0.00	30.032 
00:45	71.5	71.5	71.5	94	69.7	0	0	---	0.00	30.030 
00:50	71.3	71.3	71.3	94	69.5	0	0	---	0.00	30.030 
00:55	71.3	71.3	71.3	94	69.5	0	0	---	0.00	30.030 
01:00	71.3	71.3	71.3	94	69.5	0	0	---	0.00	30.030 
01:05	71.3	71.3	71.3	94	69.5	0	0	---	0.00	30.030 
01:10	71.1	71.1	71.1	94	69.3	0	0	---	0.00	30.030 
01:15	71.1	71.1	71.1	94	69.3	0	0	---	0.00	30.026 
01:20	71.1	71.1	71.1	94	69.3	0	0	---	0.00	30.026 
01:25	71.1	71.1	71.1	94	69.3	0	0	---	0.00	30.026 
01:30	71.1	71.1	71.1	94	69.3	0	0	---	0.00	30.024 
01:35	71.1	71.1	71.1	94	69.3	0	0	---	0.00	30.024 
01:40	70.9	70.9	70.9	94	69.1	0	0	---	0.00	30.024 
01:45	70.9	70.9	70.9	94	69.1	0	0	---	0.00	30.031 
01:50	70.8	70.8	70.8	93	68.7	0	0	---	0.00	30.031 
01:55	70.8	70.8	70.8	93	68.7	0	0	---	0.00	30.031 
02:00	70.8	70.8	70.8	93	68.7	0	0	---	0.00	30.034 
02:05	70.6	70.6	70.6	93	68.5	0	0	---	0.00	30.034 
02:10	70.6	70.6	70.6	93	68.5	0	0	---	0.00	30.034 
02:15	70.6	70.6	70.6	93	68.5	0	0	---	0.00	30.034 
02:20	70.6	70.6	70.6	93	68.5	0	0	---	0.00	30.034 
02:25	70.4	70.4	70.4	93	68.3	0	0	---	0.00	30.034 
02:30	70.3	70.3	70.3	93	68.2	0	0	---	0.00	30.028 
02:35	70.3	70.3	70.3	93	68.2	0	0	---	0.00	30.028 
02:40	70.1	70.1	70.1	93	68.0	0	0	---	0.00	30.028 
02:45	70.1	70.1	70.1	93	68.0	0	0	---	0.00	30.025 
02:50	70.1	70.1	70.1	93	68.0	0	0	---	0.00	30.025 
02:55	69.9	69.9	69.9	93	67.8	0	0	---	0.00	30.025 
03:00	69.9	69.9	69.9	93	67.8	0	0	---	0.00	30.026 
03:05	69.8	69.8	69.8	93	67.7	0	0	---	0.00	30.026 
03:10	69.8	69.8	69.8	93	67.7	0	0	---	0.00	30.026 
03:15	69.8	69.8	69.8	93	67.7	0	0	---	0.00	30.025 
03:20	69.8	69.8	69.8	93	67.7	0	0	---	0.00	30.025 
03:25	69.8	69.8	69.8	93	67.7	0	0	---	0.00	30.025 
03:30	69.8	69.8	69.8	93	67.7	0	0	---	0.00	30.027 
03:35	69.8	69.8	69.8	93	67.7	0	0	---	0.00	30.027 
03:40	69.8	69.8	69.8	93	67.7	0	1	135	0.00	30.027 
03:45	69.9	69.9	69.9	93	67.8	0	0	---	0.00	30.024 
03:50	69.9	69.9	69.9	92	67.5	0	4	135	0.00	30.024 
03:55	70.3	70.3	70.3	92	67.9	0	2	292	0.00	30.024 
04:00	70.4	70.4	70.4	91	67.6	0	2	292	0.00	30.027 
04:05	70.4	70.4	70.4	89	67.0	1	5	292	0.00	30.027 
04:10	70.6	70.6	70.6	88	66.9	0	3	292	0.00	30.027 
04:15	70.4	70.4	70.4	87	66.3	0	3	292	0.00	30.026 
04:20	69.9	69.9	69.9	88	66.2	1	7	292	0.04	30.026 
04:25	69.1	69.1	69.1	89	65.7	1	3	248	0.09	30.026 
04:30	68.1	68.1	68.1	89	64.7	5	22	270	0.20	30.036 
04:35	66.9	66.9	66.9	87	62.9	6	18	112	0.36	30.036 
04:40	66.9	66.9	66.9	89	63.5	3	9	112	0.19	30.036 
04:45	66.9	66.9	66.9	91	64.2	1	3	112	0.07	30.042 
04:50	66.9	66.9	66.9	91	64.2	1	4	270	0.02	30.042 
04:55	66.9	66.9	66.9	92	64.5	0	0	---	0.00	30.042 
05:00	66.9	66.9	66.9	92	64.5	0	0	---	0.00	30.033 
05:05	67.3	67.3	67.3	93	65.2	0	0	---	0.00	30.033 
05:10	68.1	68.1	68.1	94	66.3	0	0	---	0.00	30.033 
05:15	68.4	68.4	68.4	94	66.6	0	0	---	0.00	30.030 
05:20	68.6	68.6	68.6	94	66.8	0	0	---	0.00	30.030 
05:25	68.8	68.8	68.8	94	67.0	0	0	---	0.00	30.030 
05:30	68.6	68.6	68.6	94	66.8	0	0	---	0.00	30.028 
05:35	68.6	68.6	68.6	94	66.8	0	0	---	0.00	30.028 
05:40	68.4	68.4	68.4	94	66.6	0	0	---	0.00	30.028 
05:45	68.4	68.4	68.4	94	66.6	0	0	---	0.00	30.030 
05:50	68.3	68.3	68.3	94	66.5	0	0	---	0.00	30.030 
05:55	68.1	68.1	68.1	94	66.3	0	0	---	0.00	30.030 
06:00	68.1	68.1	68.1	95	66.6	0	0	---	0.00	30.028 
06:05	67.8	67.8	67.8	95	66.3	0	0	---	0.00	30.028 
06:10	67.8	67.8	67.8	95	66.3	0	0	---	0.00	30.028 
06:15	67.6	67.6	67.6	95	66.1	0	0	---	0.00	30.021 
06:20	67.4	67.4	67.4	95	65.9	0	0	---	0.00	30.021 
06:25	67.4	67.4	67.4	95	65.9	0	0	---	0.00	30.021 
06:30	67.4	67.4	67.4	95	65.9	0	0	---	0.00	30.022 
06:35	67.3	67.3	67.3	95	65.8	0	0	---	0.00	30.022 
06:40	67.3	67.3	67.3	95	65.8	0	0	---	0.00	30.022 
06:45	67.3	67.3	67.3	95	65.8	0	0	---	0.00	30.026 
06:50	67.3	67.3	67.3	95	65.8	0	0	---	0.00	30.026 
06:55	67.4	67.4	67.4	95	65.9	0	0	---	0.00	30.026 
07:00	67.4	67.4	67.4	95	65.9	0	0	---	0.00	30.028 
07:05	67.6	67.6	67.6	95	66.1	0	5	270	0.01	30.028 
07:10	67.8	67.8	67.8	96	66.6	0	0	---	0.00	30.028 
07:15	67.9	67.9	67.9	96	66.7	0	0	---	0.00	30.033 
07:20	68.1	68.1	68.1	96	66.9	0	0	---	0.00	30.033 
07:25	68.4	68.4	68.4	96	67.2	0	1	270	0.00	30.033 
07:30	68.8	68.8	68.8	96	67.6	0	0	---	0.00	30.042 
07:35	69.1	69.1	69.1	96	67.9	0	1	270	0.00	30.042 
07:40	69.4	69.4	69.4	96	68.2	0	1	270	0.00	30.042 
07:45	69.6	69.6	69.6	96	68.4	0	0	---	0.00	30.044 
07:50	69.9	69.9	69.9	96	68.7	0	1	270	0.00	30.044 
07:55	70.3	70.3	70.3	96	69.1	0	1	270	0.00	30.044 
08:00	70.6	70.6	70.6	96	69.4	0	2	270	0.00	30.045 
08:05	70.9	70.9	70.9	96	69.7	0	1	270	0.00	30.045 
08:10	71.1	71.1	71.1	96	69.9	0	1	270	0.00	30.045 
08:15	71.3	71.3	71.3	96	70.1	0	3	270	0.00	30.046 
08:20	71.6	71.6	71.6	95	70.1	0	2	270	0.00	30.046 
08:25	71.8	71.8	71.8	95	70.3	0	2	270	0.00	30.046 
08:30	72.1	72.1	72.1	95	70.6	0	2	270	0.00	30.044 
08:35	72.7	72.7	72.7	95	71.2	0	2	270	0.00	30.044 
08:40	73.0	73.0	73.0	94	71.2	0	1	270	0.00	30.044 
08:45	73.3	73.3	73.3	93	71.1	0	2	270	0.00	30.043 
08:50	73.9	73.9	73.9	93	71.7	0	1	270	0.00	30.043 
08:55	74.4	74.4	74.4	92	71.9	0	1	270	0.00	30.043 
09:00	74.6	74.6	74.6	91	71.8	0	1	270	0.00	30.044 
09:05	75.3	75.3	74.7	90	72.2	0	1	270	0.00	30.044 
09:10	75.8	75.8	75.9	88	72.0	0	1	270	0.00	30.044 
09:15	76.3	76.3	77.1	85	71.4	0	3	270	0.00	30.050 
09:20	76.3	76.3	77.2	83	70.7	0	2	270	0.00	30.050 
09:25	76.5	76.5	77.6	83	70.9	0	2	270	0.00	30.050 
09:30	76.8	76.8	78.2	82	70.9	0	1	270	0.00	30.051 
09:35	77.6	77.6	79.6	82	71.7	0	1	270	0.00	30.051 
09:40	78.1	78.1	80.5	80	71.4	0	0	---	0.00	30.051 
09:45	78.3	78.3	80.8	78	70.9	0	0	---	0.00	30.053 
09:50	78.6	78.6	81.3	78	71.1	0	0	---	0.00	30.053 
09:55	78.6	78.6	81.2	77	70.8	0	0	---	0.00	30.053 
10:00	78.6	78.6	81.3	78	71.1	0	0	---	0.00	30.053 
10:05	78.8	78.8	81.7	79	71.7	0	0	---	0.00	30.053 
10:10	79.0	79.0	82.0	77	71.2	0	0	---	0.00	30.053 
10:15	79.4	79.4	82.7	77	71.5	0	0	---	0.00	30.045 
10:20	79.8	79.8	83.3	76	71.5	0	0	---	0.00	30.045 
10:25	80.5	80.5	84.4	74	71.4	0	2	248	0.00	30.045 
10:30	80.7	80.7	84.7	74	71.6	0	4	248	0.00	30.049 
10:35	80.5	80.5	84.2	73	71.0	0	2	248	0.00	30.049 
10:40	80.3	80.3	84.0	74	71.2	0	2	248	0.00	30.049 
10:45	80.3	80.3	84.1	75	71.6	0	3	248	0.00	30.049 
10:50	80.3	80.3	83.9	73	70.8	1	3	248	0.00	30.049 
10:55	80.5	80.5	84.2	73	71.0	1	3	248	0.00	30.049 
11:00	80.3	80.3	83.9	73	70.8	1	3	248	0.00	30.051 
11:05	80.3	80.3	83.7	72	70.4	1	3	248	0.00	30.051 
11:10	80.3	80.3	84.0	74	71.2	1	3	248	0.00	30.051 
11:15	80.5	80.5	84.4	74	71.4	1	3	248	0.00	30.050 
11:20	80.7	80.7	84.7	74	71.6	0	2	248	0.00	30.050 
11:25	80.7	80.7	84.6	73	71.2	1	2	248	0.00	30.050 
11:30	80.9	80.9	84.8	72	71.0	1	4	248	0.00	30.051 
11:35	81.1	81.1	85.3	73	71.6	1	3	248	0.00	30.051 
11:40	81.2	81.2	85.3	72	71.3	1	3	248	0.00	30.051 
11:45	81.8	81.8	86.1	70	71.0	1	3	248	0.00	30.052 
11:50	81.8	81.8	86.1	70	71.0	1	4	248	0.00	30.052 
11:55	82.0	82.0	86.2	69	70.8	1	4	248	0.00	30.052 
12:00	82.2	82.2	85.9	66	69.7	2	4	248	0.00	30.051 
12:05	82.2	82.2	86.1	67	70.1	2	4	248	0.00	30.051 
12:10	82.0	82.0	86.0	68	70.4	2	4	248	0.00	30.051 
12:15	82.2	82.2	86.1	67	70.1	3	5	248	0.00	30.053 
12:20	82.4	82.4	86.7	68	70.8	2	4	270	0.00	30.053 
12:25	82.4	82.4	86.5	67	70.3	3	6	270	0.00	30.053 
12:30	82.4	82.4	87.0	69	71.2	2	4	292	0.00	30.053 
12:35	82.6	82.6	86.9	67	70.5	2	4	292	0.00	30.053 
12:40	82.8	82.8	87.5	68	71.1	2	5	270	0.00	30.053 
12:45	82.6	82.6	87.3	69	71.4	1	4	338	0.00	30.051 
12:50	82.2	82.2	86.6	69	71.0	1	3	292	0.00	30.051 
12:55	81.8	81.8	85.7	68	70.2	2	4	292	0.00	30.051 
13:00	81.6	81.6	85.5	69	70.4	1	3	292	0.00	30.053 
13:05	81.4	81.4	85.3	70	70.7	1	4	292	0.00	30.053 
13:10	81.2	81.2	85.0	70	70.5	1	3	292	0.00	30.053 
13:15	81.2	81.2	85.0	70	70.5	1	4	292	0.00	30.051 
13:20	81.1	81.1	84.6	69	69.9	2	4	292	0.00	30.051 
13:25	81.1	81.1	84.8	70	70.4	2	3	292	0.00	30.051 
13:30	81.2	81.2	85.2	71	70.9	1	3	292	0.00	30.052 
13:35	81.2	81.2	85.0	70	70.5	2	4	292	0.00	30.052 
13:40	81.4	81.4	85.0	68	69.8	1	4	292	0.00	30.052 
13:45	81.4	81.4	85.0	68	69.8	1	4	292	0.00	30.045 
13:50	81.2	81.2	84.5	67	69.2	2	5	292	0.00	30.045 
13:55	81.1	81.1	84.1	66	68.6	2	5	292	0.00	30.045 
14:00	80.9	80.9	83.8	66	68.4	1	4	292	0.00	30.041 
14:05	80.9	80.9	84.1	68	69.3	1	4	292	0.00	30.041 
14:10	80.7	80.7	84.0	69	69.6	1	4	292	0.00	30.041 
14:15	80.5	80.5	83.6	69	69.4	2	5	292	0.00	30.039 
14:20	80.1	80.1	83.0	69	69.0	2	4	292	0.00	30.039 
14:25	79.9	79.9	82.8	70	69.2	1	4	315	0.00	30.039 
14:30	79.6	79.6	82.3	70	68.9	2	4	315	0.00	30.040 
14:35	79.6	79.6	82.4	71	69.3	1	4	292	0.00	30.040 
14:40	79.4	79.4	82.1	71	69.2	2	5	292	0.00	30.040 
14:45	79.2	79.2	81.8	71	69.0	2	5	292	0.00	30.043 
14:50	79.2	79.2	82.0	73	69.8	2	4	292	0.00	30.043 
14:55	79.2	79.2	82.1	74	70.2	1	2	292	0.00	30.043 
15:00	79.0	79.0	81.7	74	70.0	1	2	292	0.00	30.042 
15:05	78.8	78.8	81.5	75	70.2	1	3	292	0.00	30.042 
15:10	78.6	78.6	81.1	75	70.0	1	4	292	0.00	30.042 
15:15	78.5	78.5	81.0	75	69.9	1	4	292	0.00	30.041 
15:20	78.1	78.1	80.4	76	69.9	1	4	292	0.00	30.041 
15:25	77.9	77.9	80.0	75	69.3	2	4	292	0.00	30.041 
15:30	77.6	77.6	79.6	77	69.8	1	3	292	0.00	30.030 
15:35	77.2	77.2	78.9	78	69.8	0	2	292	0.00	30.030 
15:40	77.0	77.0	78.6	80	70.3	1	3	292	0.00	30.030 
15:45	77.0	77.0	78.5	81	70.7	0	2	292	0.00	30.027 
15:50	76.8	76.8	78.2	81	70.5	0	2	292	0.00	30.027 
15:55	76.8	76.8	78.2	81	70.5	0	1	292	0.00	30.027 
16:00	77.0	77.0	78.5	82	71.1	1	2	292	0.00	30.023 
16:05	77.0	77.0	78.5	81	70.7	1	2	292	0.00	30.023 
16:10	77.0	77.0	78.5	81	70.7	0	3	292	0.00	30.023 
16:15	77.0	77.0	78.5	81	70.7	1	4	292	0.00	30.014 
16:20	77.0	77.0	78.5	81	70.7	1	4	292	0.00	30.014 
16:25	76.8	76.8	78.2	81	70.5	1	6	292	0.00	30.014 
16:30	76.7	76.7	78.0	81	70.4	0	3	270	0.00	30.012 
16:35	76.5	76.5	77.7	81	70.2	1	4	270	0.00	30.012 
16:40	76.5	76.5	77.7	82	70.6	0	2	270	0.00	30.012 
16:45	76.5	76.5	77.7	82	70.6	0	2	270	0.00	30.009 
16:50	76.7	76.7	78.0	82	70.8	0	1	270	0.00	30.009 
16:55	76.7	76.7	78.0	82	70.8	0	1	270	0.00	30.009 
17:00	76.7	76.7	78.0	82	70.8	0	1	270	0.00	30.000 
17:05	76.8	76.8	78.2	82	70.9	0	1	270	0.00	30.000 
17:10	76.8	76.8	78.2	82	70.9	0	1	270	0.00	30.000 
17:15	77.0	77.0	78.5	81	70.7	0	1	270	0.00	29.994 
17:20	77.2	77.2	78.9	81	70.9	0	1	270	0.00	29.994 
17:25	77.2	77.2	78.9	81	70.9	0	1	270	0.00	29.994 
17:30	77.0	77.0	78.5	81	70.7	0	1	270	0.00	29.992 
17:35	77.2	77.2	78.9	81	70.9	0	1	270	0.00	29.992 
17:40	77.4	77.4	79.2	81	71.1	0	0	---	0.00	29.992 
17:45	77.4	77.4	79.2	81	71.1	0	1	270	0.00	29.987 
17:50	77.2	77.2	78.9	81	70.9	0	1	270	0.00	29.987 
17:55	77.2	77.2	78.9	81	70.9	0	2	270	0.02	29.987 
18:00	76.8	76.8	78.1	83	71.2	0	1	270	0.00	29.991 
18:05	76.3	76.3	77.2	84	71.1	0	1	270	0.00	29.991 
18:10	76.0	76.0	76.6	85	71.2	0	1	270	0.00	29.991 
18:15	75.8	75.8	76.0	87	71.6	0	1	270	0.01	29.985 
18:20	75.6	75.6	75.6	87	71.4	0	0	---	0.00	29.985 
18:25	75.6	75.6	75.5	88	71.8	0	0	---	0.00	29.985 
18:30	75.6	75.6	75.4	89	72.1	0	0	---	0.00	29.987 
18:35	75.4	75.4	75.0	89	71.9	0	1	270	0.00	29.987 
18:40	75.4	75.4	74.8	90	72.3	0	1	270	0.00	29.987 
18:45	75.4	75.4	74.8	90	72.3	0	0	---	0.00	29.981 
18:50	75.4	75.4	74.7	91	72.6	0	1	270	0.00	29.981 
18:55	75.4	75.4	74.7	91	72.6	0	0	---	0.00	29.981 
19:00	75.4	75.4	74.7	91	72.6	0	0	---	0.00	29.983 
19:05	75.6	75.6	75.1	91	72.8	0	1	270	0.00	29.983 
19:10	75.8	75.8	75.5	91	73.0	0	3	270	0.00	29.983 
19:15	75.6	75.6	75.1	91	72.8	0	2	270	0.00	29.978 
19:20	75.6	75.6	75.1	91	72.8	1	2	270	0.00	29.978 
19:25	75.8	75.8	75.5	91	73.0	0	1	270	0.00	29.978 
19:30	75.8	75.8	75.5	91	73.0	0	2	270	0.00	29.980 
19:35	75.6	75.6	75.1	91	72.8	0	1	270	0.00	29.980 
19:40	75.6	75.6	75.1	91	72.8	0	1	270	0.00	29.980 
19:45	75.6	75.6	75.1	91	72.8	0	1	270	0.00	29.983 
19:50	75.6	75.6	75.0	92	73.1	0	1	270	0.00	29.983 
19:55	75.8	75.8	75.4	92	73.3	0	0	---	0.00	29.983 
20:00	76.0	76.0	75.8	92	73.5	0	1	270	0.00	29.982 
20:05	76.0	76.0	75.8	92	73.5	0	1	270	0.00	29.982 
20:10	76.0	76.0	75.8	92	73.5	0	0	---	0.00	29.982 
20:15	76.0	76.0	75.8	92	73.5	0	0	---	0.00	29.981 
20:20	76.0	76.0	75.8	92	73.5	0	0	---	0.00	29.981 
20:25	76.0	76.0	75.8	92	73.5	0	0	---	0.00	29.981 
20:30	76.0	76.0	75.8	92	73.5	0	0	---	0.00	29.978 
20:35	76.0	76.0	75.8	92	73.5	0	0	---	0.00	29.978 
20:40	76.0	76.0	75.8	92	73.5	0	0	---	0.00	29.978 
20:45	76.0	76.0	75.8	92	73.5	0	0	---	0.00	29.977 
20:50	76.0	76.0	75.8	92	73.5	0	0	---	0.00	29.977 
20:55	76.0	76.0	75.7	93	73.8	0	0	---	0.00	29.977 
21:00	76.0	76.0	75.7	93	73.8	0	0	---	0.00	29.971 
21:05	76.0	76.0	75.7	93	73.8	0	1	270	0.00	29.971 
21:10	76.0	76.0	75.7	93	73.8	0	0	---	0.00	29.971 
21:15	76.0	76.0	75.7	93	73.8	0	1	270	0.00	29.958 
21:20	76.0	76.0	75.7	93	73.8	0	0	---	0.00	29.958 
21:25	76.0	76.0	75.7	93	73.8	0	0	---	0.00	29.958 
21:30	75.8	75.8	75.3	93	73.6	0	0	---	0.00	29.959 
21:35	75.8	75.8	75.3	93	73.6	0	0	---	0.00	29.959 
21:40	75.8	75.8	75.3	93	73.6	0	0	---	0.00	29.959 
21:45	75.8	75.8	75.3	93	73.6	0	0	---	0.00	29.965 
21:50	75.8	75.8	75.3	93	73.6	0	0	---	0.00	29.965 
21:55	75.8	75.8	75.3	93	73.6	0	0	---	0.00	29.965 
22:00	75.8	75.8	75.3	93	73.6	0	0	---	0.00	29.956 
22:05	75.8	75.8	75.3	93	73.6	0	0	---	0.00	29.956 
22:10	75.8	75.8	75.4	92	73.3	0	1	270	0.00	29.956 
22:15	76.0	76.0	75.8	92	73.5	0	1	270	0.00	29.959 
22:20	76.0	76.0	75.8	92	73.5	0	1	270	0.00	29.959 
22:25	76.1	76.1	76.1	91	73.3	0	1	270	0.00	29.959 
22:30	76.1	76.1	76.3	90	72.9	0	1	270	0.00	29.967 
22:35	76.3	76.3	76.8	89	72.8	0	1	270	0.00	29.967 
22:40	76.5	76.5	77.2	89	73.0	0	1	270	0.00	29.967 
22:45	76.5	76.5	77.2	88	72.7	0	1	270	0.00	29.970 
22:50	76.7	76.7	77.7	88	72.9	0	1	270	0.00	29.970 
22:55	76.7	76.7	77.7	87	72.5	0	2	270	0.00	29.970 
23:00	77.0	77.0	78.4	86	72.5	0	2	270	0.00	29.972 
23:05	77.2	77.2	78.8	85	72.3	0	1	270	0.00	29.972 
23:10	77.4	77.4	79.2	84	72.2	0	1	270	0.00	29.972 
23:15	77.4	77.4	79.2	84	72.2	0	1	270	0.00	29.970 
23:20	77.4	77.4	79.2	84	72.2	0	1	270	0.00	29.970 
23:25	77.6	77.6	79.6	84	72.4	0	1	270	0.00	29.970 
23:30	77.6	77.6	79.6	83	72.0	0	2	270	0.00	29.969 
23:35	77.6	77.6	79.6	83	72.0	0	1	270	0.00	29.969 
23:40	77.7	77.7	79.8	83	72.1	0	2	270	0.00	29.969 
23:45	77.7	77.7	79.8	82	71.8	1	2	270	0.00	29.967 
23:50	77.9	77.9	80.2	82	71.9	0	2	315	0.00	29.967 
23:55	77.9	77.9	80.2	82	71.9	1	3	315	0.00	29.967 

CoCoRaHS
IN-AL-39
A2 Web Hosting
Creative Commons License
GoDaddy
search engine by freefind advanced

loaded 2018-11-20 15:28:31 • last modified 2010-11-18 10:43:29
Privacy PolicyDisclaimer
• wx.awcolley.com is powered by PmWiki v.2002016 •
• all content (unless otherwise noted) © 2018 A W Colley